createdAt,value
2019-02-11T00:02:15.659Z,6.10
2019-02-11T00:04:43.375Z,6.10
2019-02-11T00:07:11.151Z,6.10
2019-02-11T00:09:39.993Z,6.10
2019-02-11T00:12:07.615Z,6.00
2019-02-11T00:14:35.245Z,6.00
2019-02-11T00:17:03.167Z,6.00
2019-02-11T00:19:30.977Z,6.00
2019-02-11T00:21:58.641Z,6.00
2019-02-11T00:24:26.347Z,5.90
2019-02-11T00:26:54.111Z,5.90
2019-02-11T00:29:21.769Z,5.90
2019-02-11T00:31:49.352Z,5.90
2019-02-11T00:34:18.029Z,5.80
2019-02-11T00:36:45.972Z,5.80
2019-02-11T00:39:13.669Z,5.80
2019-02-11T00:41:41.488Z,5.80
2019-02-11T00:44:09.079Z,5.80
2019-02-11T00:46:36.713Z,5.80
2019-02-11T00:49:04.431Z,5.80
2019-02-11T00:51:32.057Z,5.80
2019-02-11T00:53:59.753Z,5.80
2019-02-11T00:56:27.407Z,5.90
2019-02-11T00:58:55.129Z,5.90
2019-02-11T01:01:22.840Z,5.90
2019-02-11T01:03:50.608Z,5.90
2019-02-11T01:06:18.371Z,5.90
2019-02-11T01:08:46.944Z,5.90
2019-02-11T01:11:14.593Z,5.90
2019-02-11T01:13:42.180Z,5.90
2019-02-11T01:16:09.792Z,5.90
2019-02-11T01:18:37.399Z,5.80
2019-02-11T01:21:04.992Z,5.80
2019-02-11T01:23:32.723Z,5.80
2019-02-11T01:26:00.382Z,5.80
2019-02-11T01:28:28.088Z,5.80
2019-02-11T01:30:55.653Z,5.80
2019-02-11T01:33:23.512Z,5.80
2019-02-11T01:35:51.310Z,5.80
2019-02-11T01:38:18.993Z,5.70
2019-02-11T01:40:46.764Z,5.70
2019-02-11T01:43:14.470Z,5.70
2019-02-11T01:45:42.037Z,5.70
2019-02-11T01:48:09.869Z,5.70
2019-02-11T01:50:37.485Z,5.70
2019-02-11T01:53:05.093Z,5.70
2019-02-11T01:55:32.846Z,5.70
2019-02-11T01:58:00.521Z,5.70
2019-02-11T02:00:28.289Z,5.70
2019-02-11T02:02:55.841Z,5.70
2019-02-11T02:05:23.744Z,5.70
2019-02-11T02:07:51.457Z,5.70
2019-02-11T02:10:19.005Z,5.70
2019-02-11T02:12:46.493Z,5.70
2019-02-11T02:15:13.940Z,5.70
2019-02-11T02:17:41.369Z,5.60
2019-02-11T02:20:10.367Z,5.70
2019-02-11T02:22:37.797Z,5.70
2019-02-11T02:25:05.557Z,5.70
2019-02-11T02:27:32.947Z,5.70
2019-02-11T02:30:00.384Z,5.70
2019-02-11T02:32:28.025Z,5.70
2019-02-11T02:34:55.438Z,5.70
2019-02-11T02:37:22.859Z,5.70
2019-02-11T02:39:50.476Z,5.70
2019-02-11T02:42:17.862Z,5.70
2019-02-11T02:44:45.336Z,5.70
2019-02-11T02:47:12.766Z,5.70
2019-02-11T02:49:40.182Z,5.70
2019-02-11T02:52:07.625Z,5.60
2019-02-11T02:54:35.053Z,5.60
2019-02-11T02:57:02.520Z,5.60
2019-02-11T02:59:30.160Z,5.50
2019-02-11T03:01:57.583Z,5.50
2019-02-11T03:04:24.984Z,5.40
2019-02-11T03:06:52.432Z,5.40
2019-02-11T03:09:19.853Z,5.30
2019-02-11T03:11:47.300Z,5.30
2019-02-11T03:14:14.732Z,5.20
2019-02-11T03:16:42.268Z,5.20
2019-02-11T03:19:09.866Z,5.10
2019-02-11T03:21:37.299Z,5.00
2019-02-11T03:24:04.728Z,4.90
2019-02-11T03:26:32.168Z,4.80
2019-02-11T03:28:59.560Z,4.80
2019-02-11T03:31:26.997Z,4.70
2019-02-11T03:33:54.517Z,4.70
2019-02-11T03:36:22.094Z,4.60
2019-02-11T03:38:49.725Z,4.50
2019-02-11T03:41:17.171Z,4.40
2019-02-11T03:43:45.521Z,4.40
2019-02-11T03:46:12.998Z,4.40
2019-02-11T03:48:40.416Z,4.40
2019-02-11T03:51:07.882Z,4.30
2019-02-11T03:53:35.307Z,4.30
2019-02-11T03:56:02.950Z,4.30
2019-02-11T03:58:30.433Z,4.30
2019-02-11T04:00:57.832Z,4.20
2019-02-11T04:03:25.282Z,4.30
2019-02-11T04:05:52.692Z,4.20
2019-02-11T04:08:20.129Z,4.20
2019-02-11T04:10:47.542Z,4.20
2019-02-11T04:13:14.970Z,4.20
2019-02-11T04:15:42.703Z,4.10
2019-02-11T04:18:10.133Z,4.10
2019-02-11T04:20:37.534Z,4.10
2019-02-11T04:23:05.050Z,4.10
2019-02-11T04:25:32.512Z,4.10
2019-02-11T04:27:59.953Z,4.20
2019-02-11T04:30:27.380Z,4.20
2019-02-11T04:32:54.813Z,4.20
2019-02-11T04:35:22.248Z,4.10
2019-02-11T04:37:49.690Z,4.10
2019-02-11T04:40:17.129Z,4.10
2019-02-11T04:42:44.552Z,4.10
2019-02-11T04:45:12.301Z,4.10
2019-02-11T04:47:39.813Z,4.10
2019-02-11T04:50:07.492Z,4.10
2019-02-11T04:52:35.897Z,4.10
2019-02-11T04:55:03.508Z,4.10
2019-02-11T04:57:30.989Z,4.10
2019-02-11T04:59:58.348Z,4.10
2019-02-11T05:02:25.742Z,4.10
2019-02-11T05:04:53.186Z,4.20
2019-02-11T05:07:20.615Z,4.20
2019-02-11T05:09:48.410Z,4.20
2019-02-11T05:12:15.812Z,4.20
2019-02-11T05:14:44.344Z,4.20
2019-02-11T05:17:12.979Z,4.20
2019-02-11T05:19:40.430Z,4.20
2019-02-11T05:22:07.863Z,4.20
2019-02-11T05:24:35.286Z,4.20
2019-02-11T05:27:02.726Z,4.20
2019-02-11T05:29:30.218Z,4.20
2019-02-11T05:31:57.694Z,4.20
2019-02-11T05:34:25.139Z,4.20
2019-02-11T05:36:52.683Z,4.20
2019-02-11T05:39:20.069Z,4.20
2019-02-11T05:41:47.761Z,4.10
2019-02-11T05:44:15.226Z,4.10
2019-02-11T05:46:42.693Z,4.10
2019-02-11T05:49:10.145Z,4.20
2019-02-11T05:51:37.748Z,4.20
2019-02-11T05:54:05.289Z,4.20
2019-02-11T05:56:32.770Z,4.20
2019-02-11T05:59:00.112Z,4.30
2019-02-11T06:01:27.533Z,4.30
2019-02-11T06:03:55.015Z,4.30
2019-02-11T06:06:22.490Z,4.30
2019-02-11T06:08:50.065Z,4.30
2019-02-11T06:11:17.557Z,4.30
2019-02-11T06:13:45.056Z,4.30
2019-02-11T06:16:12.597Z,4.30
2019-02-11T06:18:40.074Z,4.30
2019-02-11T06:21:07.485Z,4.40
2019-02-11T06:23:34.925Z,4.30
2019-02-11T06:26:02.451Z,4.30
2019-02-11T06:28:29.912Z,4.30
2019-02-11T06:30:57.337Z,4.30
2019-02-11T06:33:24.805Z,4.30
2019-02-11T06:35:52.241Z,4.30
2019-02-11T06:38:19.787Z,4.40
2019-02-11T06:40:47.186Z,4.40
2019-02-11T06:43:14.657Z,4.40
2019-02-11T06:45:42.053Z,4.50
2019-02-11T06:48:09.527Z,4.50
2019-02-11T06:50:37.029Z,4.50
2019-02-11T06:53:04.424Z,4.50
2019-02-11T06:55:31.878Z,4.50
2019-02-11T06:57:59.294Z,4.60
2019-02-11T07:00:26.733Z,4.60
2019-02-11T07:02:54.177Z,4.60
2019-02-11T07:05:21.613Z,4.60
2019-02-11T07:07:49.045Z,4.70
2019-02-11T07:10:16.490Z,4.70
2019-02-11T07:12:43.917Z,4.70
2019-02-11T07:15:11.414Z,4.70
2019-02-11T07:17:38.921Z,4.70
2019-02-11T07:20:06.559Z,4.80
2019-02-11T07:22:33.981Z,4.80
2019-02-11T07:25:01.385Z,4.80
2019-02-11T07:27:28.823Z,4.80
2019-02-11T07:29:56.256Z,4.80
2019-02-11T07:32:23.784Z,4.90
2019-02-11T07:34:51.265Z,4.90
2019-02-11T07:37:18.690Z,4.90
2019-02-11T07:39:46.099Z,5.00
2019-02-11T07:42:20.597Z,5.00
2019-02-11T07:44:59.822Z,5.00
2019-02-11T07:47:27.237Z,4.90
2019-02-11T07:49:54.733Z,4.90
2019-02-11T07:52:27.015Z,4.90
2019-02-11T07:54:51.877Z,4.90
2019-02-11T07:57:19.306Z,4.90
2019-02-11T07:59:46.882Z,4.80
2019-02-11T08:02:14.333Z,4.80
2019-02-11T08:04:41.729Z,4.80
2019-02-11T08:07:09.179Z,4.80
2019-02-11T08:09:36.671Z,4.80
2019-02-11T08:12:04.150Z,4.80
2019-02-11T08:14:31.572Z,4.80
2019-02-11T08:16:59.011Z,4.90
2019-02-11T08:19:26.405Z,4.90
2019-02-11T08:21:54.017Z,4.90
2019-02-11T08:24:21.612Z,5.00
2019-02-11T08:26:49.154Z,5.00
2019-02-11T08:29:16.658Z,5.00
2019-02-11T08:31:44.289Z,5.10
2019-02-11T08:34:11.767Z,5.10
2019-02-11T08:36:39.220Z,5.10
2019-02-11T08:39:08.422Z,5.10
2019-02-11T08:41:35.957Z,5.10
2019-02-11T08:44:03.418Z,5.00
2019-02-11T08:46:30.959Z,5.10
2019-02-11T08:48:58.546Z,5.10
2019-02-11T08:51:26.210Z,5.10
2019-02-11T08:53:54.682Z,5.20
2019-02-11T08:56:22.149Z,5.10
2019-02-11T08:58:49.597Z,5.20
2019-02-11T09:01:17.134Z,5.20
2019-02-11T09:03:44.578Z,5.30
2019-02-11T09:06:12.120Z,5.30
2019-02-11T09:08:39.569Z,5.30
2019-02-11T09:11:07.128Z,5.30
2019-02-11T09:13:34.625Z,5.40
2019-02-11T09:16:02.075Z,5.40
2019-02-11T09:18:29.649Z,5.60
2019-02-11T09:20:57.150Z,5.60
2019-02-11T09:23:24.586Z,5.70
2019-02-11T09:25:52.202Z,5.70
2019-02-11T09:28:19.693Z,5.80
2019-02-11T09:30:47.312Z,5.90
2019-02-11T09:33:14.818Z,6.00
2019-02-11T09:35:42.245Z,5.90
2019-02-11T09:38:13.231Z,6.00
2019-02-11T09:40:40.673Z,6.10
2019-02-11T09:43:08.137Z,6.10
2019-02-11T09:45:36.171Z,6.10
2019-02-11T09:48:03.609Z,6.10
2019-02-11T09:50:37.568Z,6.10
2019-02-11T09:53:05.238Z,6.10
2019-02-11T09:55:32.917Z,6.20
2019-02-11T09:58:00.455Z,6.20
2019-02-11T10:00:27.996Z,6.30
2019-02-11T10:02:55.416Z,6.30
2019-02-11T10:05:22.945Z,6.30
2019-02-11T10:07:50.396Z,6.30
2019-02-11T10:10:17.958Z,6.30
2019-02-11T10:12:45.394Z,6.40
2019-02-11T10:15:13.640Z,6.40
2019-02-11T10:17:41.074Z,6.40
2019-02-11T10:20:09.210Z,6.60
2019-02-11T10:22:36.695Z,6.60
2019-02-11T10:25:05.815Z,6.60
2019-02-11T10:27:33.351Z,6.70
2019-02-11T10:30:00.774Z,6.80
2019-02-11T10:32:28.355Z,6.80
2019-02-11T10:34:57.673Z,6.80
2019-02-11T10:37:25.131Z,6.90
2019-02-11T10:39:52.779Z,7.00
2019-02-11T10:42:20.386Z,7.00
2019-02-11T10:44:47.798Z,7.00
2019-02-11T10:47:15.241Z,7.00
2019-02-11T10:49:42.654Z,7.10
2019-02-11T10:52:10.132Z,7.20
2019-02-11T10:54:37.656Z,7.30
2019-02-11T10:57:07.219Z,7.30
2019-02-11T10:59:35.194Z,7.30
2019-02-11T11:02:03.699Z,7.20
2019-02-11T11:04:31.217Z,7.20
2019-02-11T11:06:58.774Z,7.10
2019-02-11T11:09:26.229Z,7.10
2019-02-11T11:11:53.678Z,7.00
2019-02-11T11:14:22.218Z,7.00
2019-02-11T11:16:49.741Z,6.90
2019-02-11T11:19:17.289Z,6.90
2019-02-11T11:21:44.941Z,6.90
2019-02-11T11:24:12.378Z,6.80
2019-02-11T11:26:39.781Z,6.80
2019-02-11T11:29:07.232Z,6.80
2019-02-11T11:31:34.661Z,6.80
2019-02-11T11:34:02.090Z,6.70
2019-02-11T11:36:29.477Z,6.70
2019-02-11T11:38:56.944Z,6.60
2019-02-11T11:41:24.681Z,6.60
2019-02-11T11:43:52.100Z,6.60
2019-02-11T11:46:19.528Z,6.50
2019-02-11T11:48:46.946Z,6.50
2019-02-11T11:51:14.436Z,6.60
2019-02-11T11:53:41.903Z,6.60
2019-02-11T11:56:09.331Z,6.60
2019-02-11T11:58:37.021Z,6.60
2019-02-11T12:01:06.538Z,6.60
2019-02-11T12:03:34.051Z,6.60
2019-02-11T12:06:01.629Z,6.70
2019-02-11T12:08:29.120Z,6.60
2019-02-11T12:10:56.569Z,6.70
2019-02-11T12:13:24.340Z,6.70
2019-02-11T12:15:51.890Z,6.80
2019-02-11T12:18:19.575Z,7.00
2019-02-11T12:20:46.992Z,7.20
2019-02-11T12:23:14.458Z,7.40
2019-02-11T12:25:42.030Z,7.50
2019-02-11T12:28:09.565Z,7.70
2019-02-11T12:30:37.119Z,7.80
2019-02-11T12:33:04.625Z,7.80
2019-02-11T12:35:32.234Z,7.90
2019-02-11T12:37:59.690Z,7.70
2019-02-11T12:40:27.118Z,7.60
2019-02-11T12:42:55.553Z,7.80
2019-02-11T12:45:23.110Z,8.10
2019-02-11T12:47:51.562Z,8.40
2019-02-11T12:50:19.045Z,8.50
2019-02-11T12:52:47.481Z,8.60
2019-02-11T12:55:14.966Z,8.60
2019-02-11T12:57:42.509Z,8.60
2019-02-11T13:00:20.321Z,8.60
2019-02-11T13:02:47.968Z,8.50
2019-02-11T13:05:15.517Z,8.40
2019-02-11T13:07:43.112Z,8.30
2019-02-11T13:10:13.621Z,8.30
2019-02-11T13:12:41.071Z,8.30
2019-02-11T13:15:09.781Z,8.40
2019-02-11T13:17:37.243Z,8.70
2019-02-11T13:20:09.595Z,9.10
2019-02-11T13:22:34.410Z,9.50
2019-02-11T13:25:08.132Z,9.50
2019-02-11T13:27:34.135Z,9.50
2019-02-11T13:30:01.716Z,9.30
2019-02-11T13:32:30.468Z,9.10
2019-02-11T13:34:57.910Z,8.90
2019-02-11T13:37:25.350Z,8.80
2019-02-11T13:39:52.828Z,8.80
2019-02-11T13:42:20.276Z,8.70
2019-02-11T13:44:47.838Z,8.70
2019-02-11T13:47:15.347Z,8.70
2019-02-11T13:49:46.303Z,8.70
2019-02-11T13:52:12.287Z,8.60
2019-02-11T13:54:39.833Z,8.60
2019-02-11T13:57:07.283Z,8.50
2019-02-11T13:59:35.050Z,8.40
2019-02-11T14:02:02.505Z,8.30
2019-02-11T14:04:29.959Z,8.30
2019-02-11T14:06:57.372Z,8.30
2019-02-11T14:09:25.041Z,8.30
2019-02-11T14:11:52.839Z,8.30
2019-02-11T14:14:27.466Z,8.40
2019-02-11T14:16:54.949Z,8.40
2019-02-11T14:19:22.515Z,8.40
2019-02-11T14:21:51.032Z,8.30
2019-02-11T14:24:18.759Z,8.20
2019-02-11T14:26:47.279Z,8.00
2019-02-11T14:29:14.809Z,7.90
2019-02-11T14:31:42.506Z,7.90
2019-02-11T14:34:11.113Z,7.80
2019-02-11T14:36:43.123Z,7.70
2019-02-11T14:39:11.132Z,7.60
2019-02-11T14:41:39.188Z,7.50
2019-02-11T14:44:07.239Z,7.50
2019-02-11T14:46:34.983Z,7.50
2019-02-11T14:49:02.718Z,7.40
2019-02-11T14:51:30.338Z,7.30
2019-02-11T14:53:58.126Z,7.20
2019-02-11T14:56:25.906Z,7.20
2019-02-11T14:58:53.403Z,7.10
2019-02-11T15:01:20.939Z,7.10
2019-02-11T15:03:48.488Z,7.10
2019-02-11T15:06:15.914Z,7.10
2019-02-11T15:08:44.442Z,7.10
2019-02-11T15:11:12.023Z,7.10
2019-02-11T15:13:39.556Z,7.10
2019-02-11T15:16:07.028Z,7.20
2019-02-11T15:18:34.619Z,7.10
2019-02-11T15:21:02.203Z,7.10
2019-02-11T15:23:29.752Z,7.10
2019-02-11T15:25:57.298Z,7.10
2019-02-11T15:28:24.758Z,7.10
2019-02-11T15:30:52.242Z,7.20
2019-02-11T15:33:19.787Z,7.20
2019-02-11T15:35:47.233Z,7.10
2019-02-11T15:38:14.693Z,7.10
2019-02-11T15:40:42.240Z,7.00
2019-02-11T15:43:09.734Z,7.00
2019-02-11T15:45:37.253Z,7.00
2019-02-11T15:48:04.731Z,7.00
2019-02-11T15:50:32.224Z,7.00
2019-02-11T15:52:59.664Z,7.00
2019-02-11T15:55:27.100Z,7.00
2019-02-11T15:57:54.632Z,7.00
2019-02-11T16:00:22.212Z,7.00
2019-02-11T16:02:51.613Z,7.00
2019-02-11T16:05:20.014Z,7.00
2019-02-11T16:07:48.524Z,6.90
2019-02-11T16:10:18.534Z,6.90
2019-02-11T16:12:46.029Z,7.00
2019-02-11T16:15:13.724Z,7.00
2019-02-11T16:17:41.307Z,6.90
2019-02-11T16:20:09.542Z,6.90
2019-02-11T16:22:37.070Z,6.90
2019-02-11T16:25:06.428Z,6.90
2019-02-11T16:27:34.043Z,6.80
2019-02-11T16:30:01.645Z,6.80
2019-02-11T16:32:31.401Z,6.70
2019-02-11T16:34:59.549Z,6.60
2019-02-11T16:37:27.464Z,6.60
2019-02-11T16:39:54.993Z,6.60
2019-02-11T16:42:22.798Z,6.60
2019-02-11T16:44:50.510Z,6.50
2019-02-11T16:47:18.371Z,6.50
2019-02-11T16:49:46.261Z,6.40
2019-02-11T16:52:14.303Z,6.50
2019-02-11T16:54:41.799Z,6.40
2019-02-11T16:57:09.346Z,6.40
2019-02-11T16:59:36.795Z,6.30
2019-02-11T17:02:04.923Z,6.30
2019-02-11T17:04:32.454Z,6.30
2019-02-11T17:07:00.598Z,6.30
2019-02-11T17:09:28.235Z,6.20
2019-02-11T17:11:56.476Z,6.20
2019-02-11T17:14:24.290Z,6.20
2019-02-11T17:16:52.152Z,6.20
2019-02-11T17:19:20.019Z,6.10
2019-02-11T17:21:47.818Z,6.10
2019-02-11T17:24:15.453Z,6.10
2019-02-11T17:26:43.249Z,6.10
2019-02-11T17:29:11.077Z,6.10
2019-02-11T17:31:38.714Z,6.00
2019-02-11T17:34:06.201Z,5.90
2019-02-11T17:36:33.926Z,5.90
2019-02-11T17:39:01.514Z,5.90
2019-02-11T17:41:31.289Z,5.80
2019-02-11T17:43:59.101Z,5.70
2019-02-11T17:46:26.903Z,5.70
2019-02-11T17:48:54.378Z,5.60
2019-02-11T17:51:21.930Z,5.60
2019-02-11T17:53:49.775Z,5.50
2019-02-11T17:56:17.830Z,5.50
2019-02-11T17:58:45.856Z,5.50
2019-02-11T18:01:13.646Z,5.50
2019-02-11T18:03:41.115Z,5.50
2019-02-11T18:06:08.551Z,5.50
2019-02-11T18:08:36.089Z,5.40
2019-02-11T18:11:03.812Z,5.40
2019-02-11T18:13:31.566Z,5.40
2019-02-11T18:15:59.437Z,5.50
2019-02-11T18:18:27.424Z,5.50
2019-02-11T18:20:55.150Z,5.50
2019-02-11T18:23:22.627Z,5.60
2019-02-11T18:25:50.405Z,5.60
2019-02-11T18:28:18.192Z,5.60
2019-02-11T18:30:45.660Z,5.70
2019-02-11T18:33:13.409Z,5.70
2019-02-11T18:35:40.877Z,5.70
2019-02-11T18:38:08.362Z,5.80
2019-02-11T18:40:35.830Z,5.80
2019-02-11T18:43:03.412Z,5.80
2019-02-11T18:45:30.911Z,5.90
2019-02-11T18:47:58.306Z,5.90
2019-02-11T18:50:25.853Z,5.90
2019-02-11T18:52:53.480Z,5.90
2019-02-11T18:55:20.946Z,5.90
2019-02-11T18:57:48.534Z,5.90
2019-02-11T19:00:17.101Z,6.00
2019-02-11T19:02:44.868Z,6.00
2019-02-11T19:05:13.511Z,6.00
2019-02-11T19:07:41.204Z,5.90
2019-02-11T19:10:09.937Z,5.90
2019-02-11T19:12:37.391Z,6.00
2019-02-11T19:15:06.008Z,6.00
2019-02-11T19:17:33.507Z,6.00
2019-02-11T19:20:01.004Z,6.00
2019-02-11T19:22:28.440Z,6.00
2019-02-11T19:24:55.977Z,6.00
2019-02-11T19:27:23.457Z,6.10
2019-02-11T19:29:51.024Z,6.10
2019-02-11T19:32:18.510Z,6.00
2019-02-11T19:34:45.998Z,6.00
2019-02-11T19:37:13.714Z,6.00
2019-02-11T19:39:41.140Z,6.00
2019-02-11T19:42:08.609Z,6.00
2019-02-11T19:44:36.063Z,6.00
2019-02-11T19:47:03.637Z,6.00
2019-02-11T19:49:31.073Z,6.00
2019-02-11T19:51:58.574Z,6.00
2019-02-11T19:54:26.001Z,5.90
2019-02-11T19:56:53.457Z,5.90
2019-02-11T19:59:20.964Z,5.90
2019-02-11T20:01:48.554Z,5.90
2019-02-11T20:04:16.056Z,5.90
2019-02-11T20:06:43.524Z,5.90
2019-02-11T20:09:11.055Z,5.90
2019-02-11T20:11:38.683Z,5.80
2019-02-11T20:14:06.276Z,5.90
2019-02-11T20:16:33.750Z,5.90
2019-02-11T20:19:01.302Z,5.90
2019-02-11T20:21:28.820Z,5.90
2019-02-11T20:23:56.280Z,5.90
2019-02-11T20:26:23.780Z,5.90
2019-02-11T20:28:51.361Z,5.90
2019-02-11T20:31:19.069Z,5.90
2019-02-11T20:33:47.003Z,5.80
2019-02-11T20:36:14.691Z,5.70
2019-02-11T20:38:42.482Z,5.60
2019-02-11T20:41:10.197Z,5.50
2019-02-11T20:43:40.699Z,5.50
2019-02-11T20:46:08.387Z,5.40
2019-02-11T20:48:36.229Z,5.40
2019-02-11T20:51:04.216Z,5.30
2019-02-11T20:53:32.249Z,5.30
2019-02-11T20:56:00.200Z,5.20
2019-02-11T20:58:28.180Z,5.20
2019-02-11T21:00:55.937Z,5.10
2019-02-11T21:03:23.851Z,5.10
2019-02-11T21:05:51.619Z,5.00
2019-02-11T21:08:19.444Z,5.00
2019-02-11T21:10:47.228Z,4.90
2019-02-11T21:13:14.960Z,4.90
2019-02-11T21:15:42.684Z,4.80
2019-02-11T21:18:10.535Z,4.80
2019-02-11T21:20:38.808Z,4.70
2019-02-11T21:23:08.372Z,4.70
2019-02-11T21:25:36.231Z,4.60
2019-02-11T21:28:04.151Z,4.60
2019-02-11T21:30:31.946Z,4.50
2019-02-11T21:32:59.666Z,4.50
2019-02-11T21:35:27.407Z,4.40
2019-02-11T21:37:55.196Z,4.40
2019-02-11T21:40:22.931Z,4.40
2019-02-11T21:42:50.693Z,4.30
2019-02-11T21:45:18.523Z,4.30
2019-02-11T21:47:46.352Z,4.30
2019-02-11T21:50:14.359Z,4.20
2019-02-11T21:52:42.071Z,4.20
2019-02-11T21:55:10.738Z,4.10
2019-02-11T21:57:38.599Z,4.10
2019-02-11T22:00:08.584Z,4.10
2019-02-11T22:02:36.737Z,4.00
2019-02-11T22:05:04.691Z,3.90
2019-02-11T22:07:32.559Z,3.90
2019-02-11T22:10:00.261Z,3.80
2019-02-11T22:12:27.917Z,3.80
2019-02-11T22:14:55.626Z,3.70
2019-02-11T22:17:23.608Z,3.70
2019-02-11T22:19:51.247Z,3.60
2019-02-11T22:22:19.015Z,3.60
2019-02-11T22:24:46.627Z,3.50
2019-02-11T22:27:14.383Z,3.50
2019-02-11T22:29:42.009Z,3.50
2019-02-11T22:32:09.881Z,3.40
2019-02-11T22:34:37.688Z,3.40
2019-02-11T22:37:05.425Z,3.40
2019-02-11T22:39:33.185Z,3.30
2019-02-11T22:42:00.932Z,3.30
2019-02-11T22:44:28.657Z,3.20
2019-02-11T22:46:56.339Z,3.20
2019-02-11T22:49:24.903Z,3.20
2019-02-11T22:51:52.704Z,3.10
2019-02-11T22:54:20.505Z,3.10
2019-02-11T22:56:49.203Z,3.10
2019-02-11T22:59:16.960Z,3.10
2019-02-11T23:01:44.658Z,3.10
2019-02-11T23:04:12.456Z,3.20
2019-02-11T23:06:40.217Z,3.20
2019-02-11T23:09:11.477Z,3.30
2019-02-11T23:11:39.468Z,3.30
2019-02-11T23:14:07.187Z,3.40
2019-02-11T23:16:34.939Z,3.50
2019-02-11T23:19:02.670Z,3.50
2019-02-11T23:21:30.396Z,3.60
2019-02-11T23:23:58.073Z,3.70
2019-02-11T23:26:25.932Z,3.70
2019-02-11T23:28:53.681Z,3.70
2019-02-11T23:31:21.456Z,3.70
2019-02-11T23:33:49.397Z,3.70
2019-02-11T23:36:17.150Z,3.70
2019-02-11T23:38:44.776Z,3.70
2019-02-11T23:41:12.591Z,3.70
2019-02-11T23:43:40.399Z,3.70
2019-02-11T23:46:08.315Z,3.70
2019-02-11T23:48:36.104Z,3.70
2019-02-11T23:51:03.881Z,3.60
2019-02-11T23:53:31.580Z,3.60
2019-02-11T23:55:59.319Z,3.60
2019-02-11T23:58:26.923Z,3.60
